TimeCEST,TemperatureF,Dew PointF,Humidity,Sea Level PressureIn,VisibilityMPH,Wind Direction,Wind SpeedMPH,Gust SpeedMPH,PrecipitationIn,Events,Conditions,WindDirDegrees,DateUTC
12:00 AM,55.4,50.0,82,29.95,-9999.0,Variable,2.3,-,N/A,,Clear,0,2013-05-20 22:00:00
12:30 AM,55.4,51.8,88,29.95,-9999.0,Variable,3.5,-,N/A,,Clear,0,2013-05-20 22:30:00
1:00 AM,53.6,51.8,94,29.95,6.2,Variable,3.5,-,N/A,Thunderstorm,Unknown,0,2013-05-20 23:00:00
1:30 AM,53.6,50.0,88,29.95,-9999.0,Variable,1.2,-,N/A,,Clear,0,2013-05-20 23:30:00
2:00 AM,51.8,50.0,94,29.95,-9999.0,Variable,1.2,-,N/A,,Clear,0,2013-05-21 00:00:00
2:30 AM,51.8,50.0,94,29.95,-9999.0,Variable,2.3,-,N/A,,Clear,0,2013-05-21 00:30:00
3:00 AM,48.2,48.2,100,29.95,-9999.0,ESE,4.6,-,N/A,,Clear,110,2013-05-21 01:00:00
3:30 AM,50.0,48.2,94,29.95,-9999.0,Variable,2.3,-,N/A,,Clear,0,2013-05-21 01:30:00
4:00 AM,48.2,48.2,100,29.95,-9999.0,Variable,2.3,-,N/A,,Clear,0,2013-05-21 02:00:00
4:30 AM,48.2,48.2,100,29.95,-9999.0,Variable,2.3,-,N/A,,Clear,0,2013-05-21 02:30:00
5:00 AM,46.4,46.4,100,29.95,-9999.0,ESE,6.9,-,N/A,,Clear,110,2013-05-21 03:00:00
5:30 AM,50.0,48.2,94,29.95,-9999.0,ESE,4.6,-,N/A,,Clear,110,2013-05-21 03:30:00
6:00 AM,50.0,48.2,94,29.95,-9999.0,Variable,3.5,-,N/A,,Clear,0,2013-05-21 04:00:00
6:30 AM,53.6,48.2,82,29.95,-9999.0,SE,9.2,-,N/A,,Clear,140,2013-05-21 04:30:00
7:00 AM,53.6,48.2,82,29.95,-9999.0,SE,5.8,-,N/A,,Clear,140,2013-05-21 05:00:00
7:30 AM,55.4,48.2,77,29.95,-9999.0,SSE,5.8,-,N/A,,Clear,160,2013-05-21 05:30:00
8:00 AM,59.0,48.2,67,29.95,-9999.0,SSW,6.9,-,N/A,,Clear,210,2013-05-21 06:00:00
8:30 AM,60.8,48.2,63,29.95,-9999.0,SSW,10.4,-,N/A,,Clear,200,2013-05-21 06:30:00
9:00 AM,60.8,48.2,63,29.95,6.2,South,11.5,-,N/A,,Scattered Clouds,190,2013-05-21 07:00:00
9:30 AM,60.8,46.4,59,29.95,6.2,SW,10.4,-,N/A,,Partly Cloudy,220,2013-05-21 07:30:00
10:00 AM,62.6,46.4,55,29.95,6.2,SW,10.4,-,N/A,,Partly Cloudy,220,2013-05-21 08:00:00
10:30 AM,62.6,48.2,59,29.95,6.2,South,13.8,-,N/A,,Partly Cloudy,190,2013-05-21 08:30:00
11:00 AM,64.4,48.2,56,29.95,6.2,South,12.7,-,N/A,,Scattered Clouds,190,2013-05-21 09:00:00
11:30 AM,66.2,48.2,52,29.95,6.2,SSW,15.0,-,N/A,,Scattered Clouds,200,2013-05-21 09:30:00
12:00 PM,66.2,48.2,52,29.95,6.2,SSW,15.0,-,N/A,,Scattered Clouds,200,2013-05-21 10:00:00
12:30 PM,68.0,48.2,49,29.95,6.2,SW,15.0,-,N/A,,Scattered Clouds,220,2013-05-21 10:30:00
1:00 PM,69.8,50.0,49,29.92,-9999.0,SSW,16.1,-,N/A,,Clear,200,2013-05-21 11:00:00
1:30 PM,68.0,48.2,49,29.92,-9999.0,SSW,15.0,-,N/A,,Clear,210,2013-05-21 11:30:00
2:00 PM,69.8,48.2,46,29.92,-9999.0,SW,16.1,-,N/A,,Clear,220,2013-05-21 12:00:00
2:30 PM,68.0,46.4,46,29.89,-9999.0,SW,17.3,-,N/A,,Clear,220,2013-05-21 12:30:00
3:00 PM,69.8,46.4,43,29.89,-9999.0,SW,16.1,-,N/A,,Clear,220,2013-05-21 13:00:00
3:30 PM,68.0,44.6,43,29.89,-9999.0,SW,17.3,-,N/A,,Clear,230,2013-05-21 13:30:00
4:00 PM,71.6,46.4,41,29.89,-9999.0,SW,12.7,-,N/A,,Clear,230,2013-05-21 14:00:00
4:30 PM,69.8,46.4,43,29.86,-9999.0,SW,16.1,-,N/A,,Clear,230,2013-05-21 14:30:00
5:00 PM,69.8,44.6,40,29.86,-9999.0,WSW,15.0,-,N/A,,Clear,240,2013-05-21 15:00:00
5:30 PM,69.8,46.4,43,29.86,-9999.0,SSW,12.7,-,N/A,,Clear,200,2013-05-21 15:30:00
6:00 PM,68.0,44.6,43,29.86,-9999.0,SSW,10.4,-,N/A,,Clear,210,2013-05-21 16:00:00
6:30 PM,68.0,42.8,40,29.86,-9999.0,SSW,10.4,-,N/A,,Clear,200,2013-05-21 16:30:00
7:00 PM,68.0,42.8,40,29.86,-9999.0,SSW,9.2,-,N/A,,Clear,200,2013-05-21 17:00:00
7:30 PM,68.0,42.8,40,29.83,-9999.0,SSW,11.5,-,N/A,,Clear,200,2013-05-21 17:30:00
8:00 PM,66.2,44.6,46,29.86,-9999.0,SSW,10.4,-,N/A,,Clear,200,2013-05-21 18:00:00
8:30 PM,64.4,42.8,45,29.86,-9999.0,SSW,8.1,-,N/A,,Clear,200,2013-05-21 18:30:00
9:00 PM,62.6,44.6,52,29.86,-9999.0,South,5.8,-,N/A,,Clear,190,2013-05-21 19:00:00
9:30 PM,60.8,44.6,55,29.86,-9999.0,South,5.8,-,N/A,,Clear,170,2013-05-21 19:30:00
10:00 PM,57.2,46.4,67,29.86,-9999.0,SSE,5.8,-,N/A,,Clear,160,2013-05-21 20:00:00
10:30 PM,55.4,46.4,72,29.86,-9999.0,SE,4.6,-,N/A,,Clear,140,2013-05-21 20:30:00
11:00 PM,53.6,46.4,77,29.86,-9999.0,SSE,4.6,-,N/A,,Clear,160,2013-05-21 21:00:00
11:30 PM,53.6,46.4,77,29.83,-9999.0,Variable,2.3,-,N/A,,Clear,0,2013-05-21 21:30:00